Armstrong Station, Canada
Current Conditions -  °F | °C
As of 7:00 AM on Saturday 25 Oct 2014 (Local Time) from CYPL Reporting Station
Broken Clouds Broken Clouds  
Wind Chill: 32°   Ceiling: 23000
Heat Index: 41°   Visibility: 15mi
Dew Point: 32°   Wind: 21mph
Humidity: 70%   Direction: 280°W
Pressure: 29.49"   Gusts: 33mph
Location:  50.3°N, 89.03°W
Report Text: CYPL 251100Z 28018G29KT 15SM SCT022 BKN230 05/00 A2949 RMK SC4CI1 SLP998
Loading
Personal Weather Stations






























Interactive Weather Map
Tropical Storm Tracking
New forecast layout! Learn more

10-Day Weather Forecast

Advertisements
Track Severe Weather on mobile